Suffolk, VA (23434)

8:16 AM EST on February 01, 2015 (GMT -0500)
Lake Cohoon | Change Station
CLOSE
Current Station
Personal Weather Station
Location: Suffolk, VA
Elevation: 65 ft
Nearby Weather Stations

Elev 65 ft 36.75 °N, 76.66 °W | Updated 4 seconds ago

Overcast
Overcast
28.4 °F
Feels Like 28 °F
N
0.0
Wind Variable Wind from SSW
Gusts 0.0 mph

Today
High -- | Low -- °F
--% Chance of Precip.
Yesterday
High -- | Low -- °F
Precip. -- in
7:08 AM 5:31 PM
Waxing Gibbous, 95% visible
Pressure 30.31 in
Visibility 10.0 miles
Clouds Mostly Cloudy 9500 ft
Windchill 28 °F
Dew Point 20 °F
Humidity 69%
Rainfall 0.00 in
Snow Depth Not available.
UV 0 out of 12
Pollen 2.10 out of 12
Air Quality Not available.
Flu Activity Not available.
METAR KSFQ 011235Z AUTO 00000KT 10SM BKN095 M03/M06 A3031 RMK AO2 T10281057

More Conditions Fewer Conditions

Pressure 30.31 in
Visibility 10.0 miles
Clouds Mostly Cloudy 9500 ft
Windchill 28 °F
Dew Point 20 °F
Humidity 69%
Rainfall 0.00 in
Snow Depth Not available.
UV 0 out of 12
Pollen 2.10 out of 12
Air Quality Not available.
Flu Activity Not available.
METAR KSFQ 011235Z AUTO 00000KT 10SM BKN095 M03/M06 A3031 RMK AO2 T10281057

More Conditions Fewer Conditions

10-Day Weather Forecast

Almanac

Astronomy

Feb. 01, 2015 Rise Set
Actual Time
Civil Twilight
Nautical Twilight
Astronomical Twilight
Moon
Length of Visible Light
Length of Day
Tomorrow will be .
, % of the Moon is Illuminated

Today's Extremes

State Highs State Lows

Community

WunderPhotos

Upload Photos

1,792,359 photos uploaded!

WunderBlogs® & News

Nearby

Air Quality

  Air Quality AQ Index Pollutant
Not available.

Snow Depth

Station Depth Elevation

Earthquake Activity

City Distance Mag. Time & Date
Minimum magnitude displayed is 2.5.

Coastal Water Temperatures

Place Temperature

Nearby Weather Stations